createdAt,value
2019-01-19T00:04:32.604Z,41.30
2019-01-19T00:14:36.725Z,43.37
2019-01-19T00:24:59.053Z,40.17
2019-01-19T00:35:18.209Z,41.37
2019-01-19T00:45:43.485Z,38.47
2019-01-19T00:56:16.333Z,41.50
2019-01-19T01:06:25.922Z,40.60
2019-01-19T01:16:33.005Z,40.37
2019-01-19T01:26:52.101Z,38.97
2019-01-19T01:36:59.101Z,40.10
2019-01-19T01:47:14.525Z,40.83
2019-01-19T01:57:21.525Z,41.67
2019-01-19T02:07:46.965Z,43.00
2019-01-19T02:18:09.206Z,40.83
2019-01-19T02:28:16.373Z,39.97
2019-01-19T02:38:32.352Z,44.70
2019-01-19T02:48:39.386Z,41.77
2019-01-19T02:58:46.973Z,42.97
2019-01-19T03:09:05.833Z,42.60
2019-01-19T03:19:24.830Z,40.53
2019-01-19T03:29:38.047Z,41.23
2019-01-19T03:39:47.846Z,39.70
2019-01-19T03:50:29.775Z,45.10
2019-01-19T04:00:45.787Z,41.40
2019-01-19T04:11:01.903Z,42.57
2019-01-19T04:21:14.446Z,40.33
2019-01-19T04:31:18.374Z,41.10
2019-01-19T04:41:22.246Z,40.07
2019-01-19T04:51:26.128Z,39.53
2019-01-19T05:01:30.019Z,40.77
2019-01-19T05:11:33.948Z,42.63
2019-01-19T05:21:37.817Z,45.87
2019-01-19T05:31:41.743Z,41.47
2019-01-19T05:41:45.646Z,39.33
2019-01-19T05:51:49.605Z,39.60
2019-01-19T06:01:53.623Z,37.23
2019-01-19T06:11:57.548Z,41.97
2019-01-19T06:22:01.925Z,40.50
2019-01-19T06:32:05.877Z,37.40
2019-01-19T06:42:10.125Z,47.00
2019-01-19T06:52:13.966Z,50.70
2019-01-19T07:02:17.836Z,58.63
2019-01-19T07:12:21.885Z,61.70
2019-01-19T07:22:25.846Z,57.53
2019-01-19T07:32:29.807Z,50.07
2019-01-19T07:42:34.446Z,53.20
2019-01-19T07:52:38.325Z,45.60
2019-01-19T08:02:42.326Z,46.07
2019-01-19T08:12:46.550Z,44.27
2019-01-19T08:22:50.453Z,42.87
2019-01-19T08:32:54.417Z,42.47
2019-01-19T08:43:08.927Z,52.83
2019-01-19T08:53:12.893Z,47.80
2019-01-19T09:03:16.821Z,48.67
2019-01-19T09:13:20.673Z,50.07
2019-01-19T09:23:26.152Z,41.20
2019-01-19T09:33:30.149Z,43.30
2019-01-19T09:43:34.004Z,38.23
2019-01-19T09:53:37.955Z,33.53
2019-01-19T10:03:41.855Z,35.30
2019-01-19T10:13:46.286Z,33.00
2019-01-19T10:23:50.256Z,59.47
2019-01-19T10:33:54.245Z,32.67
2019-01-19T10:43:58.197Z,37.77
2019-01-19T10:54:02.166Z,46.13
2019-01-19T11:04:06.134Z,45.03
2019-01-19T11:14:10.088Z,29.20
2019-01-19T11:24:14.014Z,25.70
2019-01-19T11:34:17.970Z,24.23
2019-01-19T11:44:21.911Z,21.83
2019-01-19T11:54:26.006Z,19.30
2019-01-19T12:04:29.969Z,15.80
2019-01-19T12:14:33.889Z,14.60
2019-01-19T12:24:37.755Z,12.20
2019-01-19T12:34:41.646Z,13.40
2019-01-19T12:44:45.613Z,12.70
2019-01-19T12:54:49.565Z,12.47
2019-01-19T13:04:53.946Z,12.73
2019-01-19T13:15:00.966Z,12.50
2019-01-19T13:25:36.207Z,9.90
2019-01-19T13:35:58.270Z,9.03
2019-01-19T13:46:25.786Z,8.53
2019-01-19T13:56:44.713Z,8.43
2019-01-19T14:06:57.754Z,9.70
2019-01-19T14:17:10.798Z,8.77
2019-01-19T14:27:43.454Z,7.40
2019-01-19T14:38:05.445Z,8.73
2019-01-19T14:48:12.573Z,8.63
2019-01-19T14:58:22.434Z,6.87
2019-01-19T15:08:35.149Z,6.03
2019-01-19T15:19:04.445Z,7.67
2019-01-19T15:29:32.645Z,8.27
2019-01-19T15:39:42.486Z,9.67
2019-01-19T15:50:01.899Z,12.10
2019-01-19T16:00:15.045Z,15.53
2019-01-19T16:10:46.506Z,16.97
2019-01-19T16:20:56.565Z,20.63
2019-01-19T16:31:12.506Z,20.70
2019-01-19T16:41:36.324Z,22.87
2019-01-19T16:52:16.872Z,22.53
2019-01-19T17:02:37.754Z,27.03
2019-01-19T17:12:53.655Z,28.40
2019-01-19T17:23:06.685Z,25.93
2019-01-19T17:33:24.234Z,29.50
2019-01-19T17:43:31.326Z,27.57
2019-01-19T17:54:05.122Z,33.83
2019-01-19T18:04:14.989Z,33.13
2019-01-19T18:14:34.069Z,37.23
2019-01-19T18:24:49.831Z,31.10
2019-01-19T18:35:03.485Z,38.77
2019-01-19T18:45:13.401Z,43.03
2019-01-19T18:55:26.565Z,34.43
2019-01-19T19:05:36.327Z,37.57
2019-01-19T19:15:49.756Z,39.87
2019-01-19T19:26:06.151Z,37.23
2019-01-19T19:36:34.749Z,36.23
2019-01-19T19:46:44.366Z,39.37
2019-01-19T19:56:47.413Z,35.60
2019-01-19T20:06:51.899Z,41.80
2019-01-19T20:16:56.256Z,42.30
2019-01-19T20:27:00.348Z,42.20
2019-01-19T20:37:04.325Z,44.23
2019-01-19T20:47:08.485Z,44.80
2019-01-19T20:57:12.443Z,42.60
2019-01-19T21:07:16.597Z,41.47
2019-01-19T21:17:20.685Z,36.30
2019-01-19T21:27:25.037Z,27.70
2019-01-19T21:37:29.013Z,20.07
2019-01-19T21:47:32.872Z,16.13
2019-01-19T21:57:36.710Z,14.53
2019-01-19T22:07:40.605Z,12.43
2019-01-19T22:17:44.549Z,13.70
2019-01-19T22:27:49.445Z,12.53
2019-01-19T22:37:53.393Z,14.37
2019-01-19T22:47:57.243Z,12.73
2019-01-19T22:58:01.138Z,12.23
2019-01-19T23:08:05.253Z,11.20
2019-01-19T23:18:09.159Z,13.93
2019-01-19T23:28:13.097Z,16.63
2019-01-19T23:38:16.967Z,16.13
2019-01-19T23:48:20.925Z,15.50
2019-01-19T23:58:24.805Z,16.43
